St. HILARI SACALM (La Selva)





Hora UTC 06:55
Temperatura 20.4 ºC
Suelo 15 cm 21.0 ºC
Humedad 86.8 %
Presión 1011.4 hPa
Pluja 0.0 mm
Velocidad viento 3.4 km/h
Dirección viento S
Radiación solar 57.8 W/m²

Datos diarios 2024-07-21



Hora UTC (invierno +1h; verano +2h)
Temperatura (ºC) Humedad (%) Presión (hPa) Velocidad viento (km/h) Precipitación (mm) Radiación solar (W/m²)
Hora UTC Aire Suelo 15 cm Humedad Presión Vel. Dir. Vel. Max Dir. Intent. máx 5 min. Rad. Sol.
00:05 22.2 19.4 63.7 1010.3 0.1 SE 0.1 SE 0.0 0.1
00:10 22.2 19.4 64.2 1010.4 2.2 SSW 6.1 SSW 0.0 0.1
00:15 22.1 19.5 66.2 1010.4 2.9 ESE 11.5 E 0.0 0.1
00:20 22.8 20.0 70.6 1010.4 4.1 NE 11.5 NE 0.0 0.1
00:25 23.0 20.3 70.3 1010.4 1.8 NNE 8.8 NNE 0.0 0.1
00:30 23.1 20.3 70.5 1010.4 0.9 N 6.1 NNW 0.0 0.1
00:35 23.2 20.5 68.5 1010.4 0.7 SSE 6.1 SSW 0.0 0.1
00:40 23.2 20.6 69.2 1010.3 2.6 ENE 11.5 ENE 0.0 0.1
00:45 23.3 20.9 69.9 1010.4 5.7 NE 14.2 NNE 0.0 0.1
00:50 23.2 21.0 70.5 1010.3 5.8 NNE 11.5 NE 0.0 0.1
00:55 22.9 20.8 71.5 1010.4 4.3 NNE 11.5 N 0.0 0.1
01:00 22.6 20.5 72.3 1010.3 4.9 NNE 8.8 NE 0.0 0.1
01:05 22.7 20.6 71.8 1010.3 9.3 NE 16.9 NNE 0.0 0.1
01:10 22.9 20.8 71.0 1010.3 8.0 NE 16.9 N 0.0 0.1
01:15 22.7 20.6 71.7 1010.6 2.6 NNE 6.1 N 0.0 0.2
01:20 22.4 20.3 72.8 1010.6 5.6 ENE 11.5 NE 0.0 0.1
01:25 22.5 20.2 72.7 1010.4 3.1 NE 6.1 E 0.0 0.1
01:30 22.0 19.7 74.7 1010.4 3.3 N 8.8 NNE 0.0 0.1
01:35 21.6 19.3 77.5 1010.5 1.9 ENE 6.1 ESE 0.0 0.1
01:40 21.3 18.9 78.7 1010.5 3.1 N 14.2 NNE 0.0 0.1
01:45 21.1 18.9 79.2 1010.4 5.6 NNE 11.5 NE 0.0 0.1
01:50 20.8 18.8 79.3 1010.4 6.4 NNE 14.2 NNE 0.0 0.2
01:55 20.9 18.9 77.8 1010.3 9.6 NE 19.6 NE 0.0 0.2
02:00 20.9 18.9 77.0 1010.4 7.3 NNE 14.2 NE 0.0 0.1
02:05 20.9 19.0 76.7 1010.4 8.0 NE 19.6 NE 0.0 0.1
02:10 20.7 19.0 79.1 1010.4 8.6 NNE 19.6 NE 0.0 0.1
02:15 20.5 18.8 79.3 1010.4 6.0 NNE 11.5 NNE 0.0 0.2
02:20 20.4 18.7 79.7 1010.4 6.7 NNE 14.2 ENE 0.0 0.2
02:25 20.3 18.8 80.8 1010.4 6.6 NNE 19.6 NNE 0.0 0.1
02:30 20.3 19.0 82.4 1010.4 8.4 NE 16.9 ESE 0.0 0.1
02:35 20.3 19.0 83.4 1010.5 5.4 NE 14.2 NNE 0.0 0.2
02:40 20.2 19.1 84.9 1010.5 6.1 NE 16.9 NNW 0.0 0.2
02:45 20.1 19.0 85.7 1010.6 5.3 NE 16.9 NE 0.0 0.2
02:50 20.0 18.9 86.7 1010.6 4.1 NE 16.9 ESE 0.0 0.1
02:55 19.9 18.9 87.6 1010.5 5.0 NNE 14.2 NE 0.0 0.2
03:00 19.9 19.0 88.0 1010.5 3.5 ENE 11.5 ESE 0.0 0.2
03:05 19.9 19.2 88.3 1010.7 3.5 ENE 14.2 SE 0.0 0.1
03:10 20.0 19.3 88.5 1010.7 4.1 ENE 14.2 ESE 0.0 0.1
03:15 20.0 19.5 88.7 1010.7 4.7 E 14.2 E 0.0 0.1
03:20 20.0 19.6 88.8 1010.8 4.3 NE 16.9 E 0.0 0.1
03:25 20.0 19.6 88.8 1010.8 7.5 NE 19.6 NNW 0.0 0.1
03:30 19.9 19.6 89.2 1010.9 6.9 NE 16.9 ENE 0.0 0.2
03:35 19.9 19.6 89.7 1011.0 3.3 NE 14.2 E 0.0 0.1
03:40 19.9 19.6 90.1 1011.0 4.3 NNE 14.2 NNE 0.0 0.2
03:45 19.9 19.6 90.4 1011.0 5.3 NE 11.5 NE 0.0 0.2
03:50 19.9 19.7 90.6 1011.0 1.6 N 8.8 NNW 0.0 0.1
03:55 19.9 19.7 90.9 1010.9 3.8 NE 11.5 NE 0.0 0.1
04:00 19.9 19.7 91.9 1010.9 5.8 NE 16.9 NE 0.0 0.1
04:05 19.9 19.6 92.6 1011.0 4.5 NNE 14.2 ENE 0.0 0.1
04:10 19.8 19.6 93.1 1010.9 3.2 NNE 14.2 NE 0.0 0.1
04:15 19.8 19.5 93.8 1010.9 6.9 ENE 19.6 E 0.0 0.2
04:20 19.8 19.5 94.2 1010.8 2.0 NE 11.5 E 0.0 0.2
04:25 19.8 19.4 94.4 1010.8 2.7 NNE 14.2 NNE 0.0 0.2
04:30 19.7 19.4 94.6 1010.8 7.2 NE 16.9 E 0.0 0.2
04:35 19.7 19.3 94.9 1010.8 8.3 E 19.6 E 0.0 0.2
04:40 19.6 19.3 95.3 1010.8 9.1 E 16.9 ENE 0.0 0.2
04:45 19.5 19.2 95.3 1010.8 5.6 E 14.2 E 0.0 0.3
04:50 19.3 19.1 95.0 1010.8 7.2 E 16.9 E 0.0 0.4
04:55 19.1 18.8 94.8 1010.8 5.0 E 11.5 E 0.0 0.9
05:00 18.9 18.7 94.5 1010.9 6.2 E 11.5 ENE 0.0 1.5
05:05 18.8 18.6 94.3 1011.0 5.3 ENE 11.5 ENE 0.0 1.8
05:10 18.7 18.4 94.2 1011.0 6.0 ENE 8.8 ENE 0.0 4.4
05:15 18.6 18.3 94.2 1011.1 5.9 E 11.5 ENE 0.0 5.0
05:20 18.6 18.3 94.1 1011.1 5.1 ENE 8.8 ENE 0.0 6.0
05:25 18.5 18.2 94.1 1011.0 2.3 ENE 6.1 ENE 0.0 7.2
05:30 18.5 18.3 94.0 1011.1 0.9 NE 8.8 NE 0.0 6.7
05:35 18.6 18.3 94.1 1011.2 0.8 NE 6.1 ENE 0.0 14.3
05:40 18.6 18.4 94.1 1011.2 3.0 NE 8.8 NE 0.0 20.2
05:45 18.6 18.6 94.1 1011.1 1.0 NNE 6.1 N 0.0 56.4
05:50 18.8 19.0 93.9 1011.0 2.1 ENE 6.1 NE 0.0 78.4
05:55 18.9 19.4 93.3 1011.0 2.6 ENE 6.1 E 0.0 74.2
06:00 19.0 19.7 92.6 1011.0 0.4 SSE 3.4 SSW 0.0 78.4
06:05 19.3 20.4 92.4 1011.1 2.1 SSW 6.1 S 0.0 132.1
06:10 19.8 21.0 90.9 1011.1 1.1 SW 6.1 WSW 0.0 64.5
06:15 20.0 20.9 89.5 1011.1 4.2 S 11.5 S 0.0 55.0
06:20 20.0 20.8 89.1 1011.2 3.8 SSE 8.8 SSE 0.0 62.4
06:25 19.9 20.8 89.3 1011.2 5.0 S 8.8 SSE 0.0 92.6
06:30 20.0 21.0 89.1 1011.2 5.3 SSW 11.5 SSW 0.0 85.7
06:35 20.2 21.2 88.7 1011.3 4.6 SSW 11.5 SW 0.0 53.9
06:40 20.3 21.2 88.2 1011.3 1.7 SSW 8.8 WSW 0.0 40.5
06:45 20.4 21.1 87.6 1011.4 4.7 SSW 11.5 SW 0.0 50.4
06:50 20.4 21.0 87.3 1011.5 6.6 SSW 11.5 SSW 0.0 47.0
06:55 20.4 21.0 86.8 1011.4 3.4 S 8.8 S 0.0 57.8
Máxima 23.3 21.2 95.3 1011.5 9.6 NE 19.6 E 0.0 132.1
Mínima 18.5 18.2 63.7 1010.3
Total 0.0